Jocephyle — FAD2729 — position and weather

sailwx.info

Track history (hours):
 
Tides and Currents Weather Stations Pressure Air Temp Water Temp Dewpoint Dewpoint Depression Visibility Wind Speed Wind Dir Waves Ship Positions

Jocephyle

Last reported at 2018-Mar-11 13:21 UTC. Time now 2018-Jun-19 06:59 UTC.
Position N 28°12' W 015°39'.
Warning: this ship's position is months out of date.

Length 13 m.

Type: Sailing vessel. MMSI: 227376990.

Date/timePositionNaut miles runAvg speedWind from/ knotsBaromVisibWave heightAir tempDewpointWater temp
2018-Mar-11 13:21N 28°12' W 015°39'1 4.0
2018-Mar-11 13:00N 28°12' W 015°38'2 4.3
2018-Mar-11 12:30N 28°12' W 015°35'2 4.2
2018-Mar-11 12:00N 28°12' W 015°33'3 5.7
2018-Mar-11 11:29N 28°12' W 015°30'3 7.2
2018-Mar-11 11:00N 28°11' W 015°26'3 6.5
2018-Mar-11 10:30N 28°10' W 015°22'2 4.8
2018-Mar-11 10:00N 28°08' W 015°23'1 0.0
2018-Mar-09 19:16N 28°07' W 015°25'1 4.6
2018-Mar-09 19:00N 28°08' W 015°24'2 0.3
2018-Mar-09 11:31N 28°10' W 015°23'0 4.2
2018-Mar-09 11:30N 28°10' W 015°23'2 3.9
2018-Mar-09 11:00N 28°08' W 015°22'2 3.3
2018-Mar-09 10:30N 28°07' W 015°24'0 0.0
2018-Mar-08 20:02N 28°07' W 015°24'  
2018-Mar-05 17:09N 28°55' W 013°40'1 6.7
2018-Mar-05 16:59N 28°54' W 013°39'3 6.7
2018-Mar-05 16:28N 28°50' W 013°39'2 3.9
2018-Mar-05 15:59N 28°51' W 013°37'2 5.3
2018-Mar-05 15:30N 28°53' W 013°35'3 5.3
2018-Mar-05 15:00N 28°55' W 013°33'2 4.2
2018-Mar-05 14:30N 28°57' W 013°32'1 1.7
2018-Mar-05 14:00N 28°58' W 013°32'  
Track history (hours):
 
Tides and Currents Weather Stations Pressure Air Temp Water Temp Dewpoint Dewpoint Depression Visibility Wind Speed Wind Dir Waves Ship Positions

Jocephyle

Last reported at 2018-Mar-11 13:21 UTC. Time now 2018-Jun-19 06:59 UTC.
Position N 28°12' W 015°39'.
Warning: this ship's position is months out of date.

Length 13 m.

Type: Sailing vessel. MMSI: 227376990.

Date/timePositionNaut miles runAvg speedWind from/ knotsBaromVisibWave heightAir tempDewpointWater temp
2018-Mar-11 13:21N 28°12' W 015°39'1 4.0
2018-Mar-11 13:00N 28°12' W 015°38'2 4.3
2018-Mar-11 12:30N 28°12' W 015°35'2 4.2
2018-Mar-11 12:00N 28°12' W 015°33'3 5.7
2018-Mar-11 11:29N 28°12' W 015°30'3 7.2
2018-Mar-11 11:00N 28°11' W 015°26'3 6.5
2018-Mar-11 10:30N 28°10' W 015°22'2 4.8
2018-Mar-11 10:00N 28°08' W 015°23'1 0.0
2018-Mar-09 19:16N 28°07' W 015°25'1 4.6
2018-Mar-09 19:00N 28°08' W 015°24'2 0.3
2018-Mar-09 11:31N 28°10' W 015°23'0 4.2
2018-Mar-09 11:30N 28°10' W 015°23'2 3.9
2018-Mar-09 11:00N 28°08' W 015°22'2 3.3
2018-Mar-09 10:30N 28°07' W 015°24'0 0.0
2018-Mar-08 20:02N 28°07' W 015°24'  
2018-Mar-05 17:09N 28°55' W 013°40'1 6.7
2018-Mar-05 16:59N 28°54' W 013°39'3 6.7
2018-Mar-05 16:28N 28°50' W 013°39'2 3.9
2018-Mar-05 15:59N 28°51' W 013°37'2 5.3
2018-Mar-05 15:30N 28°53' W 013°35'3 5.3
2018-Mar-05 15:00N 28°55' W 013°33'2 4.2
2018-Mar-05 14:30N 28°57' W 013°32'1 1.7
2018-Mar-05 14:00N 28°58' W 013°32'  

Dump ship's entire track history